createdAt,value
2023-01-07T00:08:02.114Z,98460
2023-01-07T00:20:03.758Z,98460
2023-01-07T00:32:02.114Z,98440
2023-01-07T00:44:02.150Z,98430
2023-01-07T00:56:02.199Z,98420
2023-01-07T01:08:02.126Z,98420
2023-01-07T01:20:02.106Z,98410
2023-01-07T01:32:02.159Z,98400
2023-01-07T01:44:02.103Z,98400
2023-01-07T01:56:02.125Z,98400
2023-01-07T02:08:02.111Z,98390
2023-01-07T02:20:02.130Z,98390
2023-01-07T02:32:02.138Z,98390
2023-01-07T02:44:02.133Z,98380
2023-01-07T02:56:02.124Z,98370
2023-01-07T03:08:02.102Z,98370
2023-01-07T03:20:02.137Z,98370
2023-01-07T03:32:02.205Z,98360
2023-01-07T03:44:02.103Z,98350
2023-01-07T03:56:02.225Z,98350
2023-01-07T04:08:02.110Z,98350
2023-01-07T04:20:02.151Z,98310
2023-01-07T04:32:02.120Z,98300
2023-01-07T04:44:02.189Z,98290
2023-01-07T04:56:02.100Z,98270
2023-01-07T05:08:02.189Z,98270
2023-01-07T05:20:02.115Z,98240
2023-01-07T05:32:02.106Z,98240
2023-01-07T05:44:02.109Z,98220
2023-01-07T05:56:02.186Z,98220
2023-01-07T06:08:02.110Z,98210
2023-01-07T06:20:02.134Z,98190
2023-01-07T06:32:02.111Z,98180
2023-01-07T06:44:02.110Z,98160
2023-01-07T06:56:02.210Z,98150
2023-01-07T07:08:02.112Z,98140
2023-01-07T07:20:02.109Z,98130
2023-01-07T07:32:02.176Z,98120
2023-01-07T07:44:02.125Z,98110
2023-01-07T07:56:02.107Z,98100
2023-01-07T08:08:02.114Z,98070
2023-01-07T08:20:02.110Z,98070
2023-01-07T08:32:02.104Z,98050
2023-01-07T08:44:02.113Z,98040
2023-01-07T08:56:02.135Z,98020
2023-01-07T09:08:02.102Z,98000
2023-01-07T09:20:02.114Z,97990
2023-01-07T09:32:02.106Z,97990
2023-01-07T09:44:02.114Z,97980
2023-01-07T09:56:10.666Z,97980
2023-01-07T10:08:30.438Z,97980
2023-01-07T10:20:02.151Z,97960
2023-01-07T10:32:02.271Z,97930
2023-01-07T10:44:02.142Z,97930
2023-01-07T10:56:02.198Z,97900
2023-01-07T11:08:02.110Z,97900
2023-01-07T11:20:02.134Z,97860
2023-01-07T11:32:02.183Z,97840
2023-01-07T11:44:02.111Z,97820
2023-01-07T11:56:02.173Z,97800
2023-01-07T12:08:02.177Z,97770
2023-01-07T12:20:02.100Z,97730
2023-01-07T12:32:02.185Z,97720
2023-01-07T12:44:02.102Z,97700
2023-01-07T12:56:02.111Z,97690
2023-01-07T13:08:04.328Z,97680
2023-01-07T13:20:04.731Z,97680
2023-01-07T13:32:02.111Z,97670
2023-01-07T13:44:02.135Z,97660
2023-01-07T13:56:02.101Z,97640
2023-01-07T14:08:02.111Z,97640
2023-01-07T14:20:02.154Z,97620
2023-01-07T14:32:02.100Z,97620
2023-01-07T14:44:02.148Z,97610
2023-01-07T14:56:02.146Z,97610
2023-01-07T15:08:02.104Z,97620
2023-01-07T15:20:02.109Z,97610
2023-01-07T15:32:02.187Z,97600
2023-01-07T15:44:02.132Z,97590
2023-01-07T15:56:02.122Z,97570
2023-01-07T16:08:02.208Z,97560
2023-01-07T16:20:02.220Z,97550
2023-01-07T16:32:02.106Z,97530
2023-01-07T16:44:02.122Z,97520
2023-01-07T16:56:02.114Z,97500
2023-01-07T17:08:02.116Z,97500
2023-01-07T17:20:02.137Z,97510
2023-01-07T17:32:02.105Z,97480
2023-01-07T17:44:02.113Z,97470
2023-01-07T17:56:02.108Z,97480
2023-01-07T18:08:02.160Z,97480
2023-01-07T18:20:02.175Z,97470
2023-01-07T18:32:02.177Z,97460
2023-01-07T18:44:02.126Z,97440
2023-01-07T18:56:02.218Z,97420
2023-01-07T19:08:02.121Z,97390
2023-01-07T19:20:02.106Z,97430
2023-01-07T19:32:02.284Z,97430
2023-01-07T19:44:02.112Z,97400
2023-01-07T19:56:02.122Z,97420
2023-01-07T20:08:02.208Z,97380
2023-01-07T20:20:02.185Z,97400
2023-01-07T20:32:02.199Z,97410
2023-01-07T20:44:02.142Z,97410
2023-01-07T20:56:02.111Z,97410
2023-01-07T21:08:02.100Z,97410
2023-01-07T21:20:02.114Z,97410
2023-01-07T21:32:02.255Z,97410
2023-01-07T21:44:02.125Z,97410
2023-01-07T21:56:02.100Z,97410
2023-01-07T22:08:02.113Z,97410
2023-01-07T22:20:02.124Z,97410
2023-01-07T22:32:02.167Z,97410
2023-01-07T22:44:02.205Z,97410
2023-01-07T22:56:02.109Z,97410
2023-01-07T23:08:02.107Z,97410
2023-01-07T23:20:02.109Z,97410
2023-01-07T23:32:02.157Z,97410
2023-01-07T23:44:02.203Z,97410
2023-01-07T23:56:02.128Z,97410
